createdAt,value
2023-03-02T00:01:30.762Z,-1.53
2023-03-02T00:03:59.458Z,-1.57
2023-03-02T00:06:28.319Z,-1.61
2023-03-02T00:08:55.883Z,-1.64
2023-03-02T00:11:22.900Z,-1.65
2023-03-02T00:13:49.674Z,-1.67
2023-03-02T00:16:16.717Z,-1.72
2023-03-02T00:18:43.533Z,-1.72
2023-03-02T00:21:10.711Z,-1.73
2023-03-02T00:23:38.454Z,-1.74
2023-03-02T00:26:06.269Z,-1.77
2023-03-02T00:28:33.981Z,-1.77
2023-03-02T00:31:04.493Z,-1.77
2023-03-02T00:33:32.840Z,-1.79
2023-03-02T00:35:59.727Z,-1.83
2023-03-02T00:38:27.754Z,-1.85
2023-03-02T00:40:56.209Z,-1.87
2023-03-02T00:43:27.426Z,-1.88
2023-03-02T00:45:55.358Z,-1.87
2023-03-02T00:48:22.561Z,-1.88
2023-03-02T00:50:49.471Z,-1.92
2023-03-02T00:53:18.006Z,-1.92
2023-03-02T00:55:56.289Z,-1.94
2023-03-02T00:58:26.553Z,-1.95
2023-03-02T01:00:54.878Z,-1.95
2023-03-02T01:03:22.470Z,-1.99
2023-03-02T01:05:49.697Z,-2.01
2023-03-02T01:08:16.475Z,-2.00
2023-03-02T01:10:43.456Z,-1.96
2023-03-02T01:13:10.218Z,-1.91
2023-03-02T01:15:37.241Z,-1.88
2023-03-02T01:18:04.165Z,-1.89
2023-03-02T01:20:31.270Z,-1.84
2023-03-02T01:22:58.242Z,-1.84
2023-03-02T01:25:25.263Z,-1.83
2023-03-02T01:27:52.221Z,-1.79
2023-03-02T01:30:19.078Z,-1.80
2023-03-02T01:32:46.127Z,-1.81
2023-03-02T01:35:14.012Z,-1.80
2023-03-02T01:37:40.921Z,-1.83
2023-03-02T01:40:09.241Z,-1.84
2023-03-02T01:42:40.800Z,-1.78
2023-03-02T01:45:47.627Z,-1.76
2023-03-02T01:48:27.282Z,-1.68
2023-03-02T01:50:54.699Z,-1.74
2023-03-02T01:53:23.698Z,-1.76
2023-03-02T01:55:51.309Z,-1.74
2023-03-02T01:58:18.379Z,-1.74
2023-03-02T02:00:45.782Z,-1.71
2023-03-02T02:03:21.019Z,-1.75
2023-03-02T02:06:04.427Z,-1.82
2023-03-02T02:08:31.361Z,-1.77
2023-03-02T02:10:58.601Z,-1.71
2023-03-02T02:13:25.880Z,-1.66
2023-03-02T02:15:52.678Z,-1.60
2023-03-02T02:18:19.597Z,-1.48
2023-03-02T02:20:55.778Z,-1.40
2023-03-02T02:23:48.122Z,-1.31
2023-03-02T02:26:23.459Z,-1.27
2023-03-02T02:29:14.800Z,-1.21
2023-03-02T02:31:51.950Z,-1.19
2023-03-02T02:34:32.066Z,-1.14
2023-03-02T02:37:05.777Z,-1.14
2023-03-02T02:39:35.499Z,-1.10
2023-03-02T02:42:05.496Z,-1.13
2023-03-02T02:44:33.284Z,-1.15
2023-03-02T02:47:00.319Z,-1.12
2023-03-02T02:49:38.798Z,-1.14
2023-03-02T02:52:06.617Z,-1.15
2023-03-02T02:54:35.097Z,-1.16
2023-03-02T02:57:03.686Z,-1.16
2023-03-02T02:59:37.895Z,-1.19
2023-03-02T03:02:05.081Z,-1.20
2023-03-02T03:04:32.707Z,-1.23
2023-03-02T03:07:02.584Z,-1.28
2023-03-02T03:09:30.430Z,-1.30
2023-03-02T03:12:14.265Z,-1.33
2023-03-02T03:14:41.934Z,-1.33
2023-03-02T03:17:12.976Z,-1.35
2023-03-02T03:19:47.598Z,-1.35
2023-03-02T03:22:16.573Z,-1.38
2023-03-02T03:24:46.045Z,-1.42
2023-03-02T03:27:15.891Z,-1.40
2023-03-02T03:29:45.735Z,-1.42
2023-03-02T03:32:14.127Z,-1.42
2023-03-02T03:34:41.712Z,-1.41
2023-03-02T03:37:18.589Z,-1.40
2023-03-02T03:39:46.476Z,-1.40
2023-03-02T03:42:13.772Z,-1.43
2023-03-02T03:44:40.797Z,-1.43
2023-03-02T03:47:07.816Z,-1.41
2023-03-02T03:49:34.988Z,-1.42
2023-03-02T03:52:03.904Z,-1.45
2023-03-02T03:54:31.366Z,-1.46
2023-03-02T03:56:59.012Z,-1.46
2023-03-02T03:59:27.228Z,-1.48
2023-03-02T04:02:00.290Z,-1.49
2023-03-02T04:04:34.445Z,-1.50
2023-03-02T04:07:06.411Z,-1.51
2023-03-02T04:09:37.938Z,-1.56
2023-03-02T04:12:09.200Z,-1.63
2023-03-02T04:14:37.745Z,-1.71
2023-03-02T04:17:05.608Z,-1.78
2023-03-02T04:19:35.606Z,-1.86
2023-03-02T04:22:04.325Z,-1.93
2023-03-02T04:24:32.763Z,-2.00
2023-03-02T04:27:02.590Z,-2.08
2023-03-02T04:29:32.437Z,-2.17
2023-03-02T04:32:01.675Z,-2.23
2023-03-02T04:34:30.312Z,-2.27
2023-03-02T04:36:57.507Z,-2.29
2023-03-02T04:39:24.496Z,-2.31
2023-03-02T04:41:53.350Z,-2.35
2023-03-02T04:44:20.520Z,-2.39
2023-03-02T04:46:48.689Z,-2.41
2023-03-02T04:49:17.202Z,-2.46
2023-03-02T04:51:45.578Z,-2.45
2023-03-02T04:54:18.613Z,-2.43
2023-03-02T04:56:48.648Z,-2.39
2023-03-02T04:59:16.844Z,-2.33
2023-03-02T05:01:44.583Z,-2.26
2023-03-02T05:04:12.024Z,-2.24
2023-03-02T05:06:39.319Z,-2.23
2023-03-02T05:09:06.671Z,-2.25
2023-03-02T05:11:33.846Z,-2.27
2023-03-02T05:14:04.508Z,-2.27
2023-03-02T05:16:34.445Z,-2.26
2023-03-02T05:19:02.469Z,-2.22
2023-03-02T05:21:30.479Z,-2.19
2023-03-02T05:23:57.906Z,-2.17
2023-03-02T05:26:24.743Z,-2.17
2023-03-02T05:28:53.965Z,-2.13
2023-03-02T05:31:28.457Z,-2.12
2023-03-02T05:33:55.422Z,-2.08
2023-03-02T05:36:23.403Z,-2.09
2023-03-02T05:38:50.286Z,-2.08
2023-03-02T05:41:18.068Z,-2.07
2023-03-02T05:43:44.930Z,-2.05
2023-03-02T05:46:11.982Z,-2.03
2023-03-02T05:48:38.814Z,-1.96
2023-03-02T05:51:05.962Z,-1.90
2023-03-02T05:53:32.718Z,-1.87
2023-03-02T05:55:59.518Z,-1.79
2023-03-02T05:58:26.395Z,-1.76
2023-03-02T06:00:53.270Z,-1.71
2023-03-02T06:03:20.364Z,-1.68
2023-03-02T06:05:51.095Z,-1.65
2023-03-02T06:08:19.167Z,-1.61
2023-03-02T06:10:46.037Z,-1.57
2023-03-02T06:13:12.978Z,-1.54
2023-03-02T06:15:40.695Z,-1.48
2023-03-02T06:18:07.514Z,-1.42
2023-03-02T06:20:34.504Z,-1.38
2023-03-02T06:23:01.280Z,-1.32
2023-03-02T06:25:28.505Z,-1.26
2023-03-02T06:27:55.356Z,-1.21
2023-03-02T06:30:25.233Z,-1.16
2023-03-02T06:32:52.694Z,-1.08
2023-03-02T06:35:19.968Z,-1.03
2023-03-02T06:37:47.005Z,-0.97
2023-03-02T06:40:14.409Z,-0.90
2023-03-02T06:42:42.286Z,-0.84
2023-03-02T06:45:10.604Z,-0.77
2023-03-02T06:47:37.499Z,-0.70
2023-03-02T06:50:05.214Z,-0.65
2023-03-02T06:52:32.214Z,-0.59
2023-03-02T06:54:59.208Z,-0.54
2023-03-02T06:57:33.621Z,-0.47
2023-03-02T07:00:02.436Z,-0.40
2023-03-02T07:02:29.400Z,-0.32
2023-03-02T07:04:56.352Z,-0.26
2023-03-02T07:07:23.333Z,-0.19
2023-03-02T07:09:50.201Z,-0.13
2023-03-02T07:12:17.025Z,-0.06
2023-03-02T07:14:43.904Z,-0.01
2023-03-02T07:17:10.886Z,0.08
2023-03-02T07:19:40.720Z,0.18
2023-03-02T07:22:07.906Z,0.29
2023-03-02T07:24:34.986Z,0.39
2023-03-02T07:27:01.984Z,0.47
2023-03-02T07:29:28.959Z,0.55
2023-03-02T07:31:57.457Z,0.63
2023-03-02T07:34:25.044Z,0.74
2023-03-02T07:36:52.678Z,0.81
2023-03-02T07:39:20.097Z,0.90
2023-03-02T07:41:47.137Z,1.02
2023-03-02T07:44:14.450Z,1.13
2023-03-02T07:46:41.712Z,1.25
2023-03-02T07:49:08.659Z,1.34
2023-03-02T07:51:35.647Z,1.43
2023-03-02T07:54:05.076Z,1.49
2023-03-02T07:56:32.116Z,1.55
2023-03-02T07:58:59.149Z,1.58
2023-03-02T08:01:26.323Z,1.63
2023-03-02T08:03:53.542Z,1.69
2023-03-02T08:06:20.710Z,1.72
2023-03-02T08:08:47.892Z,1.78
2023-03-02T08:11:17.459Z,1.86
2023-03-02T08:13:45.411Z,1.93
2023-03-02T08:16:14.358Z,1.98
2023-03-02T08:18:42.035Z,2.06
2023-03-02T08:21:18.050Z,2.12
2023-03-02T08:23:45.741Z,2.17
2023-03-02T08:26:15.851Z,2.17
2023-03-02T08:28:44.564Z,2.19
2023-03-02T08:31:12.413Z,2.22
2023-03-02T08:33:39.998Z,2.26
2023-03-02T08:36:09.640Z,2.34
2023-03-02T08:38:36.974Z,2.38
2023-03-02T08:41:06.757Z,2.41
2023-03-02T08:43:34.627Z,2.46
2023-03-02T08:46:02.389Z,2.50
2023-03-02T08:48:29.932Z,2.59
2023-03-02T08:51:02.885Z,2.68
2023-03-02T08:53:32.530Z,2.72
2023-03-02T08:55:59.650Z,2.67
2023-03-02T08:58:26.691Z,2.65
2023-03-02T09:00:54.275Z,2.68
2023-03-02T09:03:21.870Z,2.75
2023-03-02T09:05:49.173Z,2.78
2023-03-02T09:08:16.111Z,2.82
2023-03-02T09:10:43.214Z,2.78
2023-03-02T09:13:10.249Z,2.70
2023-03-02T09:15:37.210Z,2.72
2023-03-02T09:18:04.608Z,2.77
2023-03-02T09:20:32.278Z,2.82
2023-03-02T09:22:59.508Z,2.90
2023-03-02T09:25:26.518Z,2.97
2023-03-02T09:27:53.445Z,2.99
2023-03-02T09:30:20.482Z,2.95
2023-03-02T09:32:49.229Z,2.94
2023-03-02T09:35:16.481Z,2.92
2023-03-02T09:37:44.578Z,2.84
2023-03-02T09:40:21.918Z,2.84
2023-03-02T09:43:00.573Z,2.80
2023-03-02T09:46:07.384Z,2.77
2023-03-02T09:49:14.274Z,2.81
2023-03-02T09:51:51.055Z,2.85
2023-03-02T09:54:21.761Z,2.82
2023-03-02T09:56:50.973Z,2.86
2023-03-02T09:59:26.735Z,2.85
2023-03-02T10:02:01.529Z,2.84
2023-03-02T10:04:34.173Z,2.82
2023-03-02T10:07:16.850Z,2.83
2023-03-02T10:09:44.248Z,2.83
2023-03-02T10:12:37.650Z,2.82
2023-03-02T10:15:13.229Z,2.81
2023-03-02T10:18:11.152Z,2.86
2023-03-02T10:21:03.529Z,2.89
2023-03-02T10:23:57.423Z,2.93
2023-03-02T10:26:38.128Z,2.95
2023-03-02T10:29:28.870Z,2.95
2023-03-02T10:32:01.488Z,2.99
2023-03-02T10:34:30.534Z,3.03
2023-03-02T10:36:58.166Z,3.09
2023-03-02T10:39:25.250Z,3.20
2023-03-02T10:42:05.274Z,3.27
2023-03-02T10:44:38.583Z,3.32
2023-03-02T10:47:07.671Z,3.39
2023-03-02T10:49:39.499Z,3.45
2023-03-02T10:52:10.168Z,3.53
2023-03-02T10:54:37.191Z,3.43
2023-03-02T10:57:13.434Z,3.28
2023-03-02T10:59:45.739Z,3.23
2023-03-02T11:02:17.069Z,3.21
2023-03-02T11:04:44.387Z,3.29
2023-03-02T11:07:19.115Z,3.32
2023-03-02T11:10:07.234Z,3.32
2023-03-02T11:12:37.469Z,3.39
2023-03-02T11:15:25.497Z,3.49
2023-03-02T11:17:57.189Z,3.47
2023-03-02T11:20:28.469Z,3.43
2023-03-02T11:23:20.948Z,3.45
2023-03-02T11:25:54.860Z,3.40
2023-03-02T11:28:53.228Z,3.34
2023-03-02T11:31:44.408Z,3.35
2023-03-02T11:34:36.791Z,3.32
2023-03-02T11:37:29.998Z,3.27
2023-03-02T11:40:05.428Z,3.15
2023-03-02T11:42:38.726Z,3.12
2023-03-02T11:45:30.450Z,3.08
2023-03-02T11:48:07.468Z,3.09
2023-03-02T11:50:38.150Z,3.09
2023-03-02T11:53:10.535Z,3.14
2023-03-02T11:55:44.837Z,3.23
2023-03-02T11:58:18.916Z,3.26
2023-03-02T12:00:47.177Z,3.25
2023-03-02T12:03:39.682Z,3.19
2023-03-02T12:06:25.447Z,3.26
2023-03-02T12:08:55.824Z,3.32
2023-03-02T12:11:34.256Z,3.40
2023-03-02T12:14:04.611Z,3.46
2023-03-02T12:16:41.317Z,3.44
2023-03-02T12:19:28.693Z,3.41
2023-03-02T12:22:02.395Z,3.33
2023-03-02T12:24:34.514Z,3.34
2023-03-02T12:27:26.164Z,3.37
2023-03-02T12:30:26.381Z,3.40
2023-03-02T12:33:17.095Z,3.47
2023-03-02T12:35:44.395Z,3.49
2023-03-02T12:38:32.100Z,3.41
2023-03-02T12:41:21.817Z,3.36
2023-03-02T12:44:01.292Z,3.36
2023-03-02T12:46:34.450Z,3.35
2023-03-02T12:49:27.917Z,3.31
2023-03-02T12:51:57.560Z,3.32
2023-03-02T12:54:27.313Z,3.36
2023-03-02T12:57:15.136Z,3.36
2023-03-02T12:59:42.836Z,3.32
2023-03-02T13:02:21.781Z,3.27
2023-03-02T13:04:57.348Z,3.30
2023-03-02T13:07:30.714Z,3.32
2023-03-02T13:09:59.160Z,3.36
2023-03-02T13:12:28.456Z,3.50
2023-03-02T13:14:59.405Z,3.55
2023-03-02T13:17:31.264Z,3.66
2023-03-02T13:20:00.209Z,3.63
2023-03-02T13:22:28.512Z,3.60
2023-03-02T13:25:02.377Z,3.63
2023-03-02T13:27:30.133Z,3.71
2023-03-02T13:30:09.553Z,3.73
2023-03-02T13:32:40.211Z,3.71
2023-03-02T13:35:18.454Z,3.71
2023-03-02T13:37:45.648Z,3.72
2023-03-02T13:40:34.593Z,3.72
2023-03-02T13:43:01.695Z,3.62
2023-03-02T13:45:30.930Z,3.57
2023-03-02T13:47:59.509Z,3.49
2023-03-02T13:50:31.638Z,3.42
2023-03-02T13:53:05.609Z,3.34
2023-03-02T13:55:33.567Z,3.28
2023-03-02T13:58:00.921Z,3.23
2023-03-02T14:00:33.214Z,3.23
2023-03-02T14:03:05.706Z,3.22
2023-03-02T14:05:35.874Z,3.26
2023-03-02T14:08:10.186Z,3.26
2023-03-02T14:10:39.211Z,3.26
2023-03-02T14:13:09.667Z,3.25
2023-03-02T14:15:42.438Z,3.22
2023-03-02T14:18:28.488Z,3.14
2023-03-02T14:20:56.626Z,3.17
2023-03-02T14:23:27.638Z,3.16
2023-03-02T14:25:56.151Z,3.19
2023-03-02T14:28:27.269Z,3.13
2023-03-02T14:30:56.510Z,3.11
2023-03-02T14:33:24.591Z,3.07
2023-03-02T14:35:57.010Z,3.07
2023-03-02T14:38:25.467Z,3.08
2023-03-02T14:40:52.586Z,3.10
2023-03-02T14:43:21.341Z,3.04
2023-03-02T14:45:48.610Z,2.97
2023-03-02T14:48:16.071Z,2.92
2023-03-02T14:50:45.910Z,2.90
2023-03-02T14:53:23.609Z,2.90
2023-03-02T14:55:50.602Z,2.88
2023-03-02T14:58:20.271Z,2.79
2023-03-02T15:00:48.646Z,2.71
2023-03-02T15:03:29.410Z,2.64
2023-03-02T15:06:01.357Z,2.61
2023-03-02T15:08:29.568Z,2.54
2023-03-02T15:10:56.583Z,2.47
2023-03-02T15:13:23.596Z,2.41
2023-03-02T15:15:50.599Z,2.32
2023-03-02T15:18:19.986Z,2.28
2023-03-02T15:20:47.048Z,2.24
2023-03-02T15:23:14.180Z,2.17
2023-03-02T15:25:41.064Z,2.08
2023-03-02T15:28:07.974Z,2.02
2023-03-02T15:30:34.850Z,1.96
2023-03-02T15:33:01.788Z,1.93
2023-03-02T15:35:29.602Z,1.89
2023-03-02T15:37:58.424Z,1.86
2023-03-02T15:40:25.898Z,1.80
2023-03-02T15:42:53.240Z,1.76
2023-03-02T15:45:20.448Z,1.75
2023-03-02T15:47:47.485Z,1.70
2023-03-02T15:50:14.570Z,1.60
2023-03-02T15:52:42.045Z,1.49
2023-03-02T15:55:09.429Z,1.39
2023-03-02T15:57:38.580Z,1.27
2023-03-02T16:00:06.261Z,1.17
2023-03-02T16:02:33.119Z,1.06
2023-03-02T16:05:00.110Z,0.97
2023-03-02T16:07:26.995Z,0.91
2023-03-02T16:09:53.906Z,0.87
2023-03-02T16:12:23.472Z,0.83
2023-03-02T16:14:50.439Z,0.86
2023-03-02T16:17:20.670Z,0.89
2023-03-02T16:19:47.542Z,0.94
2023-03-02T16:22:14.649Z,0.93
2023-03-02T16:24:41.995Z,0.95
2023-03-02T16:27:09.154Z,0.96
2023-03-02T16:29:36.175Z,0.99
2023-03-02T16:32:03.336Z,1.00
2023-03-02T16:34:30.313Z,0.98
2023-03-02T16:36:57.232Z,1.00
2023-03-02T16:39:24.677Z,1.00
2023-03-02T16:41:51.785Z,0.95
2023-03-02T16:44:19.067Z,0.90
2023-03-02T16:46:45.942Z,0.87
2023-03-02T16:49:13.809Z,0.79
2023-03-02T16:51:41.547Z,0.76
2023-03-02T16:54:08.527Z,0.74
2023-03-02T16:56:35.432Z,0.72
2023-03-02T16:59:02.317Z,0.72
2023-03-02T17:01:29.436Z,0.74
2023-03-02T17:03:56.794Z,0.77
2023-03-02T17:06:24.079Z,0.79
2023-03-02T17:08:51.401Z,0.84
2023-03-02T17:11:19.105Z,0.84
2023-03-02T17:13:46.179Z,0.80
2023-03-02T17:16:13.791Z,0.73
2023-03-02T17:18:41.151Z,0.65
2023-03-02T17:21:08.384Z,0.61
2023-03-02T17:23:37.100Z,0.62
2023-03-02T17:26:04.494Z,0.63
2023-03-02T17:28:31.456Z,0.66
2023-03-02T17:30:59.607Z,0.66
2023-03-02T17:33:26.699Z,0.65
2023-03-02T17:35:53.543Z,0.67
2023-03-02T17:38:20.625Z,0.68
2023-03-02T17:40:48.043Z,0.62
2023-03-02T17:43:14.957Z,0.61
2023-03-02T17:45:41.796Z,0.59
2023-03-02T17:48:08.680Z,0.59
2023-03-02T17:50:35.689Z,0.60
2023-03-02T17:53:03.111Z,0.63
2023-03-02T17:55:30.195Z,0.63
2023-03-02T17:57:57.336Z,0.65
2023-03-02T18:00:24.820Z,0.67
2023-03-02T18:02:54.202Z,0.66
2023-03-02T18:05:22.711Z,0.67
2023-03-02T18:07:51.937Z,0.68
2023-03-02T18:10:20.775Z,0.67
2023-03-02T18:12:48.515Z,0.66
2023-03-02T18:15:16.510Z,0.68
2023-03-02T18:17:44.288Z,0.66
2023-03-02T18:20:13.028Z,0.59
2023-03-02T18:22:47.493Z,0.60
2023-03-02T18:25:18.564Z,0.62
2023-03-02T18:27:47.494Z,0.62
2023-03-02T18:30:16.121Z,0.60
2023-03-02T18:32:43.971Z,0.56
2023-03-02T18:35:11.648Z,0.52
2023-03-02T18:37:39.074Z,0.48
2023-03-02T18:40:08.029Z,0.46
2023-03-02T18:42:36.219Z,0.48
2023-03-02T18:45:05.352Z,0.51
2023-03-02T18:47:34.881Z,0.54
2023-03-02T18:50:02.558Z,0.55
2023-03-02T18:52:29.938Z,0.58
2023-03-02T18:54:57.901Z,0.61
2023-03-02T18:57:25.701Z,0.58
2023-03-02T18:59:52.598Z,0.62
2023-03-02T19:02:19.580Z,0.64
2023-03-02T19:04:47.024Z,0.63
2023-03-02T19:07:13.986Z,0.63
2023-03-02T19:09:40.819Z,0.65
2023-03-02T19:12:08.007Z,0.68
2023-03-02T19:14:36.897Z,0.68
2023-03-02T19:17:03.852Z,0.71
2023-03-02T19:19:31.263Z,0.69
2023-03-02T19:22:03.082Z,0.69
2023-03-02T19:24:31.170Z,0.66
2023-03-02T19:26:58.680Z,0.66
2023-03-02T19:29:26.609Z,0.66
2023-03-02T19:31:54.352Z,0.65
2023-03-02T19:34:23.113Z,0.62
2023-03-02T19:36:50.192Z,0.63
2023-03-02T19:39:16.986Z,0.62
2023-03-02T19:41:44.044Z,0.62
2023-03-02T19:44:12.746Z,0.61
2023-03-02T19:46:40.040Z,0.58
2023-03-02T19:49:07.312Z,0.54
2023-03-02T19:51:34.259Z,0.49
2023-03-02T19:54:03.665Z,0.44
2023-03-02T19:56:34.922Z,0.44
2023-03-02T19:59:01.874Z,0.44
2023-03-02T20:01:30.042Z,0.44
2023-03-02T20:04:01.100Z,0.48
2023-03-02T20:06:31.998Z,0.53
2023-03-02T20:09:01.406Z,0.54
2023-03-02T20:11:30.752Z,0.49
2023-03-02T20:14:02.398Z,0.47
2023-03-02T20:16:31.238Z,0.47
2023-03-02T20:19:02.030Z,0.46
2023-03-02T20:21:30.415Z,0.43
2023-03-02T20:23:57.654Z,0.44
2023-03-02T20:26:25.652Z,0.38
2023-03-02T20:28:55.903Z,0.36
2023-03-02T20:31:24.960Z,0.35
2023-03-02T20:33:56.890Z,0.30
2023-03-02T20:36:30.014Z,0.27
2023-03-02T20:39:07.164Z,0.28
2023-03-02T20:41:34.535Z,0.30
2023-03-02T20:44:01.498Z,0.31
2023-03-02T20:46:34.177Z,0.29
2023-03-02T20:49:01.596Z,0.28
2023-03-02T20:51:28.772Z,0.25
2023-03-02T20:53:55.724Z,0.19
2023-03-02T20:56:22.687Z,0.17
2023-03-02T20:58:50.053Z,0.15
2023-03-02T21:01:18.525Z,0.16
2023-03-02T21:03:45.483Z,0.17
2023-03-02T21:06:13.581Z,0.19
2023-03-02T21:08:41.072Z,0.18
2023-03-02T21:11:09.653Z,0.16
2023-03-02T21:13:38.912Z,0.16
2023-03-02T21:16:07.438Z,0.16
2023-03-02T21:18:34.873Z,0.18
2023-03-02T21:21:02.773Z,0.19
2023-03-02T21:23:30.066Z,0.18
2023-03-02T21:25:57.435Z,0.19
2023-03-02T21:28:24.316Z,0.15
2023-03-02T21:30:51.290Z,0.16
2023-03-02T21:33:18.255Z,0.12
2023-03-02T21:35:46.503Z,0.13
2023-03-02T21:38:14.765Z,0.15
2023-03-02T21:40:46.038Z,0.14
2023-03-02T21:43:14.262Z,0.15
2023-03-02T21:45:41.963Z,0.11
2023-03-02T21:48:09.027Z,0.05
2023-03-02T21:50:38.065Z,0.03
2023-03-02T21:53:05.693Z,0.04
2023-03-02T21:55:33.290Z,0.04
2023-03-02T21:58:00.416Z,0.04
2023-03-02T22:00:30.841Z,0.02
2023-03-02T22:02:57.748Z,0.00
2023-03-02T22:05:25.717Z,-0.02
2023-03-02T22:07:52.669Z,-0.04
2023-03-02T22:10:31.964Z,-0.06
2023-03-02T22:13:17.457Z,-0.07
2023-03-02T22:15:45.756Z,-0.09
2023-03-02T22:18:18.167Z,-0.10
2023-03-02T22:20:47.587Z,-0.08
2023-03-02T22:23:21.211Z,-0.11
2023-03-02T22:25:53.317Z,-0.18
2023-03-02T22:28:26.116Z,-0.20
2023-03-02T22:30:57.674Z,-0.19
2023-03-02T22:33:27.065Z,-0.17
2023-03-02T22:36:04.989Z,-0.19
2023-03-02T22:38:31.925Z,-0.23
2023-03-02T22:40:58.828Z,-0.31
2023-03-02T22:43:33.160Z,-0.31
2023-03-02T22:46:15.963Z,-0.28
2023-03-02T22:48:46.441Z,-0.25
2023-03-02T22:51:20.302Z,-0.21
2023-03-02T22:53:58.800Z,-0.21
2023-03-02T22:56:40.783Z,-0.24
2023-03-02T22:59:24.868Z,-0.26
2023-03-02T23:01:54.130Z,-0.35
2023-03-02T23:04:23.945Z,-0.37
2023-03-02T23:06:55.661Z,-0.41
2023-03-02T23:09:23.572Z,-0.35
2023-03-02T23:11:51.149Z,-0.34
2023-03-02T23:14:27.565Z,-0.37
2023-03-02T23:17:00.480Z,-0.41
2023-03-02T23:19:30.130Z,-0.45
2023-03-02T23:21:58.081Z,-0.45
2023-03-02T23:24:25.202Z,-0.45
2023-03-02T23:26:52.550Z,-0.42
2023-03-02T23:29:20.011Z,-0.41
2023-03-02T23:31:47.454Z,-0.42
2023-03-02T23:34:14.348Z,-0.42
2023-03-02T23:36:41.560Z,-0.44
2023-03-02T23:39:09.497Z,-0.48
2023-03-02T23:41:37.170Z,-0.55
2023-03-02T23:44:04.922Z,-0.55
2023-03-02T23:46:31.923Z,-0.60
2023-03-02T23:48:59.035Z,-0.62
2023-03-02T23:51:26.405Z,-0.60
2023-03-02T23:53:54.220Z,-0.60
2023-03-02T23:56:21.354Z,-0.59
2023-03-02T23:58:48.188Z,-0.60
